Royal Melbourne — WDC2865 — position and weather

sailwx.info

Track history (hours):
 
Tides and Currents Weather Stations Pressure Air Temp Water Temp Dewpoint Dewpoint Depression Visibility Wind Speed Wind Dir Waves Ship Positions

Royal Melbourne

More information available from US FCC via Universal Licensing System and Coast Guard Vessel Documentation Center.

Last reported at 2014-Jul-31 16:31 UTC. Time now 2014-Jul-31 17:34 UTC.
Position N 37°48' W 122°17'.

Length 30 m; draft 2 m.

Type: Tug. MMSI: 366998830.

Date/timePositionNaut miles runAvg speedWind from/ knotsBaromVisibWave heightAir tempDewpointWater temp
2014-Jul-31 16:31N 37°48' W 122°17'0 0.0
2014-Jul-31 15:31N 37°48' W 122°17'0 0.0
2014-Jul-31 14:31N 37°48' W 122°17'0 0.0
2014-Jul-31 13:31N 37°48' W 122°17'0 0.0
2014-Jul-31 12:31N 37°48' W 122°17'0 0.0
2014-Jul-31 11:31N 37°48' W 122°17'0 0.0
2014-Jul-31 10:31N 37°48' W 122°17'0 0.0
2014-Jul-31 09:31N 37°48' W 122°17'0 0.0
2014-Jul-31 08:31N 37°48' W 122°17'0 0.0
2014-Jul-31 07:31N 37°48' W 122°17'0 0.0
2014-Jul-31 06:31N 37°48' W 122°17'3 2.9
2014-Jul-31 05:33N 37°48' W 122°20'4 4.0
2014-Jul-31 04:31N 37°44' W 122°20'0 0.1
2014-Jul-31 03:31N 37°44' W 122°20'0 0.0
2014-Jul-31 02:34N 37°44' W 122°20'0 0.0
2014-Jul-31 01:33N 37°44' W 122°20'4 3.8
2014-Jul-31 00:33N 37°48' W 122°21'3 2.7
2014-Jul-30 23:28N 37°48' W 122°17'0 0.0
2014-Jul-30 22:31N 37°48' W 122°17'0 0.1
2014-Jul-30 21:31N 37°48' W 122°17'0 0.0
2014-Jul-30 20:31N 37°48' W 122°17'0 0.0
2014-Jul-30 19:31N 37°48' W 122°17'0 0.0
2014-Jul-30 18:31N 37°48' W 122°17'0 0.0
2014-Jul-30 17:31N 37°48' W 122°17'0 0.0
2014-Jul-30 16:31N 37°48' W 122°17'0 0.0
2014-Jul-30 15:31N 37°48' W 122°17'0 0.0
2014-Jul-30 14:31N 37°48' W 122°17'0 0.0
2014-Jul-30 13:31N 37°48' W 122°17'0 0.0
2014-Jul-30 12:31N 37°48' W 122°17'0 0.0
2014-Jul-30 11:31N 37°48' W 122°17'0 0.0
2014-Jul-30 10:31N 37°48' W 122°17'0 0.0
2014-Jul-30 09:31N 37°48' W 122°17'0 0.0
2014-Jul-30 08:31N 37°48' W 122°17'0 0.0
2014-Jul-30 07:34N 37°48' W 122°17'0 0.0
2014-Jul-30 06:33N 37°48' W 122°17'0 0.0
2014-Jul-30 05:33N 37°48' W 122°17'0 0.0
2014-Jul-30 04:33N 37°48' W 122°17'0 0.0
2014-Jul-30 03:33N 37°48' W 122°17'0 0.0
2014-Jul-30 02:33N 37°48' W 122°17'0 0.0
2014-Jul-30 01:33N 37°48' W 122°17'0 0.0
2014-Jul-30 00:33N 37°48' W 122°17'0 0.0
2014-Jul-29 23:33N 37°48' W 122°17'0 0.0
2014-Jul-29 22:30N 37°48' W 122°17'0 0.0
2014-Jul-29 21:33N 37°48' W 122°17'0 0.0
2014-Jul-29 20:33N 37°48' W 122°17'0 0.0
2014-Jul-29 19:33N 37°48' W 122°17'0 0.0
2014-Jul-29 18:33N 37°48' W 122°17'0 0.0
2014-Jul-29 17:30N 37°48' W 122°17'0 0.0
2014-Jul-29 16:33N 37°48' W 122°17'0 0.0
2014-Jul-29 15:33N 37°48' W 122°17'0 0.0
2014-Jul-29 14:33N 37°48' W 122°17'0 0.1
2014-Jul-29 13:32N 37°48' W 122°17'0 0.0
2014-Jul-29 12:32N 37°48' W 122°17'0 0.0
2014-Jul-29 11:32N 37°48' W 122°17'0 0.0
2014-Jul-29 10:32N 37°48' W 122°17'0 0.0
2014-Jul-29 09:32N 37°48' W 122°17'0 0.0
2014-Jul-29 08:32N 37°48' W 122°17'0 0.0
2014-Jul-29 07:32N 37°48' W 122°17'0 0.0
2014-Jul-29 06:32N 37°48' W 122°17'0 0.0
2014-Jul-29 05:32N 37°48' W 122°17'2 1.8
2014-Jul-29 04:33N 37°48' W 122°19'8 7.8
2014-Jul-29 03:33N 37°54' W 122°25'2 2.4
2014-Jul-29 02:33N 37°55' W 122°22'0 0.0
2014-Jul-29 01:33N 37°55' W 122°22'0 0.0
2014-Jul-29 00:33N 37°55' W 122°22'0 0.0
2014-Jul-28 23:33N 37°55' W 122°22'0 0.0
2014-Jul-28 22:33N 37°55' W 122°22'0 0.0
2014-Jul-28 21:27N 37°55' W 122°22'0 0.0
2014-Jul-28 20:33N 37°55' W 122°22'0 0.0
2014-Jul-28 19:33N 37°55' W 122°22'0 0.0
2014-Jul-28 18:30N 37°55' W 122°22'0 0.0
2014-Jul-28 17:33N 37°55' W 122°22'0 0.0
2014-Jul-28 16:24N 37°55' W 122°22'0 0.0
2014-Jul-28 15:33N 37°55' W 122°22'0 0.0
2014-Jul-28 14:33N 37°55' W 122°22'0 0.0
2014-Jul-28 13:33N 37°55' W 122°22'0 0.0
2014-Jul-28 12:33N 37°55' W 122°22'0 0.0
2014-Jul-28 11:33N 37°55' W 122°22'0 0.0
2014-Jul-28 10:33N 37°55' W 122°22'0 0.0
2014-Jul-28 09:33N 37°55' W 122°22'0 0.0
2014-Jul-28 08:30N 37°55' W 122°22'0 0.0
2014-Jul-28 07:33N 37°55' W 122°22'3 2.7
2014-Jul-28 06:33N 37°56' W 122°25'5 4.7
2014-Jul-28 05:33N 38°00' W 122°24'6 5.9
2014-Jul-28 04:33N 38°03' W 122°18'2 1.5
2014-Jul-28 03:28N 38°03' W 122°16'0 0.0
2014-Jul-28 02:28N 38°03' W 122°16'0 0.0
2014-Jul-28 01:28N 38°03' W 122°16'0 0.0
2014-Jul-28 00:28N 38°03' W 122°16'0 0.0
2014-Jul-27 23:28N 38°03' W 122°16'0 0.0
2014-Jul-27 22:28N 38°03' W 122°16'0 0.0
2014-Jul-27 21:16N 38°03' W 122°16'0 0.0
2014-Jul-27 20:16N 38°03' W 122°16'0 0.0
2014-Jul-27 19:22N 38°03' W 122°16'0 0.0
2014-Jul-27 18:22N 38°03' W 122°16'0 0.0
2014-Jul-27 17:28N 38°03' W 122°16'0 0.0
2014-Jul-27 16:28N 38°03' W 122°16'0 0.0
2014-Jul-27 15:28N 38°03' W 122°16'0 0.0
2014-Jul-27 14:22N 38°03' W 122°16'0 0.0
2014-Jul-27 13:33N 38°03' W 122°16'0 0.0
2014-Jul-27 12:33N 38°03' W 122°16'0 0.0
2014-Jul-27 11:33N 38°03' W 122°16'0 0.0
2014-Jul-27 10:33N 38°03' W 122°16'0 0.0
2014-Jul-27 09:33N 38°03' W 122°16'0 0.0
2014-Jul-27 08:30N 38°03' W 122°16'5 4.7
2014-Jul-27 07:32N 38°02' W 122°21'8 8.0
2014-Jul-27 06:33N 37°55' W 122°25'8 7.8
2014-Jul-27 05:33N 37°48' W 122°22'4 4.0
2014-Jul-27 04:33N 37°44' W 122°20'0 0.0
2014-Jul-27 03:33N 37°44' W 122°20'2 1.6
2014-Jul-27 02:33N 37°46' W 122°20'3 3.2
2014-Jul-27 01:32N 37°49' W 122°19'0 0.0
2014-Jul-27 00:32N 37°49' W 122°19'0 0.0
2014-Jul-26 23:32N 37°49' W 122°19'0 0.0
2014-Jul-26 22:32N 37°49' W 122°19'0 0.0
2014-Jul-26 21:34N 37°49' W 122°19'3 2.8
2014-Jul-26 20:34N 37°50' W 122°22'4 4.0
2014-Jul-26 19:34N 37°54' W 122°23'1 0.8
2014-Jul-26 18:32N 37°55' W 122°22'0 0.0
2014-Jul-26 17:29N 37°55' W 122°22'0 0.0
2014-Jul-26 16:29N 37°55' W 122°22'0 0.0
2014-Jul-26 15:32N 37°55' W 122°22'0 0.0
2014-Jul-26 14:29N 37°55' W 122°22'1 0.9
2014-Jul-26 13:34N 37°54' W 122°23'5 4.9
2014-Jul-26 12:33N 37°49' W 122°23'3 3.4
2014-Jul-26 11:34N 37°46' W 122°21'0 0.0
2014-Jul-26 10:34N 37°46' W 122°21'0 0.1
2014-Jul-26 09:33N 37°46' W 122°21'0 0.3
2014-Jul-26 08:33N 37°47' W 122°21'2 2.2
2014-Jul-26 07:33N 37°49' W 122°23'7 6.8
2014-Jul-26 06:33N 37°55' W 122°25'6 5.9
2014-Jul-26 05:33N 38°01' W 122°24'6 6.3
2014-Jul-26 04:34N 38°03' W 122°17'1 0.8
2014-Jul-26 03:29N 38°03' W 122°16'0 0.0
2014-Jul-26 02:29N 38°03' W 122°16'0 0.0
2014-Jul-26 01:29N 38°03' W 122°16'0 0.0
2014-Jul-26 00:23N 38°03' W 122°16'0 0.0
2014-Jul-25 23:23N 38°03' W 122°16'0 0.0
2014-Jul-25 22:29N 38°03' W 122°16'0 0.0
2014-Jul-25 21:29N 38°03' W 122°16'0 0.0
2014-Jul-25 20:29N 38°03' W 122°16'0 0.0
2014-Jul-25 19:23N 38°03' W 122°16'0 0.0
2014-Jul-25 18:05N 38°03' W 122°16'0 0.0
2014-Jul-25 17:23N 38°03' W 122°16'2 1.9
2014-Jul-25 16:33N 38°04' W 122°14'5 4.7
2014-Jul-25 15:33N 38°03' W 122°08'0 0.0
2014-Jul-25 09:09N 38°03' W 122°08'0 0.0
2014-Jul-25 08:21N 38°03' W 122°08'0 0.1
2014-Jul-25 03:31N 38°02' W 122°08'8 8.2
2014-Jul-25 02:33N 38°03' W 122°18'9 8.7
2014-Jul-25 01:33N 37°57' W 122°26'4 3.7
2014-Jul-25 00:33N 37°55' W 122°22'0 0.0
2014-Jul-24 23:33N 37°55' W 122°22'0 0.0
2014-Jul-24 22:30N 37°55' W 122°22'0 0.0
2014-Jul-24 21:33N 37°55' W 122°22'2 1.8
2014-Jul-24 20:33N 37°54' W 122°24'7 7.3
2014-Jul-24 19:33N 37°48' W 122°20'2 2.1
2014-Jul-24 18:32N 37°48' W 122°17'0 0.0
2014-Jul-24 17:32N 37°48' W 122°17'0 0.0
2014-Jul-24 16:32N 37°48' W 122°17'0 0.0
2014-Jul-24 15:32N 37°48' W 122°17'0 0.0
2014-Jul-24 14:32N 37°48' W 122°17'0 0.0
2014-Jul-24 13:32N 37°48' W 122°17'0 0.0
2014-Jul-24 12:32N 37°48' W 122°17'0 0.0
2014-Jul-24 11:32N 37°48' W 122°17'0 0.0
2014-Jul-24 10:32N 37°48' W 122°17'0 0.0
2014-Jul-24 09:32N 37°48' W 122°17'0 0.0
2014-Jul-24 08:32N 37°48' W 122°17'0 0.0
2014-Jul-24 07:32N 37°48' W 122°17'0 0.0
2014-Jul-24 06:32N 37°48' W 122°17'0 0.0
2014-Jul-24 05:31N 37°48' W 122°17'0 0.0
2014-Jul-24 04:31N 37°48' W 122°17'0 0.0
2014-Jul-24 03:31N 37°48' W 122°17'0 0.0
2014-Jul-24 02:28N 37°48' W 122°17'0 0.0
2014-Jul-24 01:22N 37°48' W 122°17'0 0.0
2014-Jul-24 00:31N 37°48' W 122°17'0 0.0
2014-Jul-23 23:31N 37°48' W 122°17'0 0.0
2014-Jul-23 22:31N 37°48' W 122°17'0 0.0
2014-Jul-23 21:31N 37°48' W 122°17'0 0.0
2014-Jul-23 20:33N 37°48' W 122°17'3 3.2
2014-Jul-23 19:33N 37°46' W 122°21'0 0.3
2014-Jul-23 18:33N 37°46' W 122°21'0 0.0
2014-Jul-23 17:33N 37°46' W 122°21'2 1.7
2014-Jul-23 16:33N 37°44' W 122°21'0 0.0
2014-Jul-23 15:33N 37°44' W 122°21'0 0.0
2014-Jul-23 14:27N 37°44' W 122°21'0 0.1
2014-Jul-23 13:33N 37°44' W 122°21'1 1.1
2014-Jul-23 12:33N 37°45' W 122°21'4 4.1
2014-Jul-23 11:33N 37°49' W 122°19'0 0.0
2014-Jul-23 10:32N 37°49' W 122°19'0 0.0
2014-Jul-23 09:32N 37°49' W 122°19'0 0.0
2014-Jul-23 08:32N 37°49' W 122°19'0 0.0
2014-Jul-23 07:32N 37°49' W 122°19'0 0.0
2014-Jul-23 06:32N 37°49' W 122°19'0 0.0
2014-Jul-23 05:32N 37°49' W 122°19'0 0.0
2014-Jul-23 04:32N 37°49' W 122°19'0 0.0
2014-Jul-23 03:32N 37°49' W 122°19'3 3.4
2014-Jul-23 02:33N 37°46' W 122°20'1 0.7
2014-Jul-23 01:33N 37°45' W 122°20'0 0.1
2014-Jul-23 00:33N 37°45' W 122°20'0 0.1
2014-Jul-22 23:33N 37°46' W 122°20'0 0.1
2014-Jul-22 22:33N 37°46' W 122°20'0 0.1
2014-Jul-22 21:33N 37°46' W 122°20'0 0.0
2014-Jul-22 20:33N 37°46' W 122°20'2 2.3
2014-Jul-22 19:33N 37°48' W 122°20'3 2.7
2014-Jul-22 18:33N 37°48' W 122°17'0 0.0
2014-Jul-22 17:33N 37°48' W 122°17'0 0.0
2014-Jul-22 16:33N 37°48' W 122°17'3 2.7
2014-Jul-22 15:33N 37°49' W 122°20'1 0.8
2014-Jul-22 14:32N 37°49' W 122°19'0 0.0
2014-Jul-22 13:32N 37°49' W 122°19'0 0.0
2014-Jul-22 12:32N 37°49' W 122°19'0 0.0
2014-Jul-22 11:32N 37°49' W 122°19'0 0.0
2014-Jul-22 10:32N 37°49' W 122°19'0 0.0
2014-Jul-22 09:32N 37°49' W 122°19'0 0.0
2014-Jul-22 08:32N 37°49' W 122°19'0 0.0
2014-Jul-22 07:33N 37°49' W 122°19'3 3.1
2014-Jul-22 06:34N 37°46' W 122°21'0 0.1
2014-Jul-22 05:33N 37°46' W 122°22'0 0.2
2014-Jul-22 04:33N 37°46' W 122°21'0 0.1
2014-Jul-22 03:33N 37°46' W 122°21'1 0.8
2014-Jul-22 02:33N 37°47' W 122°21'6 5.8
2014-Jul-22 01:33N 37°52' W 122°24'3 3.2
2014-Jul-22 00:33N 37°55' W 122°22'0 0.0
2014-Jul-21 23:31N 37°55' W 122°22'0 0.0
2014-Jul-21 22:31N 37°55' W 122°22'0 0.0
2014-Jul-21 21:31N 37°55' W 122°22'0 0.0
2014-Jul-21 20:31N 37°55' W 122°22'0 0.0
2014-Jul-21 20:16N 37°55' W 122°22'0 0.0
2014-Jul-21 19:28N 37°55' W 122°22'0 0.0
2014-Jul-21 18:31N 37°55' W 122°22'0 0.0
2014-Jul-21 17:31N 37°55' W 122°22'  
Track history (hours):
 
Tides and Currents Weather Stations Pressure Air Temp Water Temp Dewpoint Dewpoint Depression Visibility Wind Speed Wind Dir Waves Ship Positions

Royal Melbourne

More information available from US FCC via Universal Licensing System and Coast Guard Vessel Documentation Center.

Last reported at 2014-Jul-31 16:31 UTC. Time now 2014-Jul-31 17:34 UTC.
Position N 37°48' W 122°17'.

Length 30 m; draft 2 m.

Type: Tug. MMSI: 366998830.

Date/timePositionNaut miles runAvg speedWind from/ knotsBaromVisibWave heightAir tempDewpointWater temp
2014-Jul-31 16:31N 37°48' W 122°17'0 0.0
2014-Jul-31 15:31N 37°48' W 122°17'0 0.0
2014-Jul-31 14:31N 37°48' W 122°17'0 0.0
2014-Jul-31 13:31N 37°48' W 122°17'0 0.0
2014-Jul-31 12:31N 37°48' W 122°17'0 0.0
2014-Jul-31 11:31N 37°48' W 122°17'0 0.0
2014-Jul-31 10:31N 37°48' W 122°17'0 0.0
2014-Jul-31 09:31N 37°48' W 122°17'0 0.0
2014-Jul-31 08:31N 37°48' W 122°17'0 0.0
2014-Jul-31 07:31N 37°48' W 122°17'0 0.0
2014-Jul-31 06:31N 37°48' W 122°17'3 2.9
2014-Jul-31 05:33N 37°48' W 122°20'4 4.0
2014-Jul-31 04:31N 37°44' W 122°20'0 0.1
2014-Jul-31 03:31N 37°44' W 122°20'0 0.0
2014-Jul-31 02:34N 37°44' W 122°20'0 0.0
2014-Jul-31 01:33N 37°44' W 122°20'4 3.8
2014-Jul-31 00:33N 37°48' W 122°21'3 2.7
2014-Jul-30 23:28N 37°48' W 122°17'0 0.0
2014-Jul-30 22:31N 37°48' W 122°17'0 0.1
2014-Jul-30 21:31N 37°48' W 122°17'0 0.0
2014-Jul-30 20:31N 37°48' W 122°17'0 0.0
2014-Jul-30 19:31N 37°48' W 122°17'0 0.0
2014-Jul-30 18:31N 37°48' W 122°17'0 0.0
2014-Jul-30 17:31N 37°48' W 122°17'0 0.0
2014-Jul-30 16:31N 37°48' W 122°17'0 0.0
2014-Jul-30 15:31N 37°48' W 122°17'0 0.0
2014-Jul-30 14:31N 37°48' W 122°17'0 0.0
2014-Jul-30 13:31N 37°48' W 122°17'0 0.0
2014-Jul-30 12:31N 37°48' W 122°17'0 0.0
2014-Jul-30 11:31N 37°48' W 122°17'0 0.0
2014-Jul-30 10:31N 37°48' W 122°17'0 0.0
2014-Jul-30 09:31N 37°48' W 122°17'0 0.0
2014-Jul-30 08:31N 37°48' W 122°17'0 0.0
2014-Jul-30 07:34N 37°48' W 122°17'0 0.0
2014-Jul-30 06:33N 37°48' W 122°17'0 0.0
2014-Jul-30 05:33N 37°48' W 122°17'0 0.0
2014-Jul-30 04:33N 37°48' W 122°17'0 0.0
2014-Jul-30 03:33N 37°48' W 122°17'0 0.0
2014-Jul-30 02:33N 37°48' W 122°17'0 0.0
2014-Jul-30 01:33N 37°48' W 122°17'0 0.0
2014-Jul-30 00:33N 37°48' W 122°17'0 0.0
2014-Jul-29 23:33N 37°48' W 122°17'0 0.0
2014-Jul-29 22:30N 37°48' W 122°17'0 0.0
2014-Jul-29 21:33N 37°48' W 122°17'0 0.0
2014-Jul-29 20:33N 37°48' W 122°17'0 0.0
2014-Jul-29 19:33N 37°48' W 122°17'0 0.0
2014-Jul-29 18:33N 37°48' W 122°17'0 0.0
2014-Jul-29 17:30N 37°48' W 122°17'0 0.0
2014-Jul-29 16:33N 37°48' W 122°17'0 0.0
2014-Jul-29 15:33N 37°48' W 122°17'0 0.0
2014-Jul-29 14:33N 37°48' W 122°17'0 0.1
2014-Jul-29 13:32N 37°48' W 122°17'0 0.0
2014-Jul-29 12:32N 37°48' W 122°17'0 0.0
2014-Jul-29 11:32N 37°48' W 122°17'0 0.0
2014-Jul-29 10:32N 37°48' W 122°17'0 0.0
2014-Jul-29 09:32N 37°48' W 122°17'0 0.0
2014-Jul-29 08:32N 37°48' W 122°17'0 0.0
2014-Jul-29 07:32N 37°48' W 122°17'0 0.0
2014-Jul-29 06:32N 37°48' W 122°17'0 0.0
2014-Jul-29 05:32N 37°48' W 122°17'2 1.8
2014-Jul-29 04:33N 37°48' W 122°19'8 7.8
2014-Jul-29 03:33N 37°54' W 122°25'2 2.4
2014-Jul-29 02:33N 37°55' W 122°22'0 0.0
2014-Jul-29 01:33N 37°55' W 122°22'0 0.0
2014-Jul-29 00:33N 37°55' W 122°22'0 0.0
2014-Jul-28 23:33N 37°55' W 122°22'0 0.0
2014-Jul-28 22:33N 37°55' W 122°22'0 0.0
2014-Jul-28 21:27N 37°55' W 122°22'0 0.0
2014-Jul-28 20:33N 37°55' W 122°22'0 0.0
2014-Jul-28 19:33N 37°55' W 122°22'0 0.0
2014-Jul-28 18:30N 37°55' W 122°22'0 0.0
2014-Jul-28 17:33N 37°55' W 122°22'0 0.0
2014-Jul-28 16:24N 37°55' W 122°22'0 0.0
2014-Jul-28 15:33N 37°55' W 122°22'0 0.0
2014-Jul-28 14:33N 37°55' W 122°22'0 0.0
2014-Jul-28 13:33N 37°55' W 122°22'0 0.0
2014-Jul-28 12:33N 37°55' W 122°22'0 0.0
2014-Jul-28 11:33N 37°55' W 122°22'0 0.0
2014-Jul-28 10:33N 37°55' W 122°22'0 0.0
2014-Jul-28 09:33N 37°55' W 122°22'0 0.0
2014-Jul-28 08:30N 37°55' W 122°22'0 0.0
2014-Jul-28 07:33N 37°55' W 122°22'3 2.7
2014-Jul-28 06:33N 37°56' W 122°25'5 4.7
2014-Jul-28 05:33N 38°00' W 122°24'6 5.9
2014-Jul-28 04:33N 38°03' W 122°18'2 1.5
2014-Jul-28 03:28N 38°03' W 122°16'0 0.0
2014-Jul-28 02:28N 38°03' W 122°16'0 0.0
2014-Jul-28 01:28N 38°03' W 122°16'0 0.0
2014-Jul-28 00:28N 38°03' W 122°16'0 0.0
2014-Jul-27 23:28N 38°03' W 122°16'0 0.0
2014-Jul-27 22:28N 38°03' W 122°16'0 0.0
2014-Jul-27 21:16N 38°03' W 122°16'0 0.0
2014-Jul-27 20:16N 38°03' W 122°16'0 0.0
2014-Jul-27 19:22N 38°03' W 122°16'0 0.0
2014-Jul-27 18:22N 38°03' W 122°16'0 0.0
2014-Jul-27 17:28N 38°03' W 122°16'0 0.0
2014-Jul-27 16:28N 38°03' W 122°16'0 0.0
2014-Jul-27 15:28N 38°03' W 122°16'0 0.0
2014-Jul-27 14:22N 38°03' W 122°16'0 0.0
2014-Jul-27 13:33N 38°03' W 122°16'0 0.0
2014-Jul-27 12:33N 38°03' W 122°16'0 0.0
2014-Jul-27 11:33N 38°03' W 122°16'0 0.0
2014-Jul-27 10:33N 38°03' W 122°16'0 0.0
2014-Jul-27 09:33N 38°03' W 122°16'0 0.0
2014-Jul-27 08:30N 38°03' W 122°16'5 4.7
2014-Jul-27 07:32N 38°02' W 122°21'8 8.0
2014-Jul-27 06:33N 37°55' W 122°25'8 7.8
2014-Jul-27 05:33N 37°48' W 122°22'4 4.0
2014-Jul-27 04:33N 37°44' W 122°20'0 0.0
2014-Jul-27 03:33N 37°44' W 122°20'2 1.6
2014-Jul-27 02:33N 37°46' W 122°20'3 3.2
2014-Jul-27 01:32N 37°49' W 122°19'0 0.0
2014-Jul-27 00:32N 37°49' W 122°19'0 0.0
2014-Jul-26 23:32N 37°49' W 122°19'0 0.0
2014-Jul-26 22:32N 37°49' W 122°19'0 0.0
2014-Jul-26 21:34N 37°49' W 122°19'3 2.8
2014-Jul-26 20:34N 37°50' W 122°22'4 4.0
2014-Jul-26 19:34N 37°54' W 122°23'1 0.8
2014-Jul-26 18:32N 37°55' W 122°22'0 0.0
2014-Jul-26 17:29N 37°55' W 122°22'0 0.0
2014-Jul-26 16:29N 37°55' W 122°22'0 0.0
2014-Jul-26 15:32N 37°55' W 122°22'0 0.0
2014-Jul-26 14:29N 37°55' W 122°22'1 0.9
2014-Jul-26 13:34N 37°54' W 122°23'5 4.9
2014-Jul-26 12:33N 37°49' W 122°23'3 3.4
2014-Jul-26 11:34N 37°46' W 122°21'0 0.0
2014-Jul-26 10:34N 37°46' W 122°21'0 0.1
2014-Jul-26 09:33N 37°46' W 122°21'0 0.3
2014-Jul-26 08:33N 37°47' W 122°21'2 2.2
2014-Jul-26 07:33N 37°49' W 122°23'7 6.8
2014-Jul-26 06:33N 37°55' W 122°25'6 5.9
2014-Jul-26 05:33N 38°01' W 122°24'6 6.3
2014-Jul-26 04:34N 38°03' W 122°17'1 0.8
2014-Jul-26 03:29N 38°03' W 122°16'0 0.0
2014-Jul-26 02:29N 38°03' W 122°16'0 0.0
2014-Jul-26 01:29N 38°03' W 122°16'0 0.0
2014-Jul-26 00:23N 38°03' W 122°16'0 0.0
2014-Jul-25 23:23N 38°03' W 122°16'0 0.0
2014-Jul-25 22:29N 38°03' W 122°16'0 0.0
2014-Jul-25 21:29N 38°03' W 122°16'0 0.0
2014-Jul-25 20:29N 38°03' W 122°16'0 0.0
2014-Jul-25 19:23N 38°03' W 122°16'0 0.0
2014-Jul-25 18:05N 38°03' W 122°16'0 0.0
2014-Jul-25 17:23N 38°03' W 122°16'2 1.9
2014-Jul-25 16:33N 38°04' W 122°14'5 4.7
2014-Jul-25 15:33N 38°03' W 122°08'0 0.0
2014-Jul-25 09:09N 38°03' W 122°08'0 0.0
2014-Jul-25 08:21N 38°03' W 122°08'0 0.1
2014-Jul-25 03:31N 38°02' W 122°08'8 8.2
2014-Jul-25 02:33N 38°03' W 122°18'9 8.7
2014-Jul-25 01:33N 37°57' W 122°26'4 3.7
2014-Jul-25 00:33N 37°55' W 122°22'0 0.0
2014-Jul-24 23:33N 37°55' W 122°22'0 0.0
2014-Jul-24 22:30N 37°55' W 122°22'0 0.0
2014-Jul-24 21:33N 37°55' W 122°22'2 1.8
2014-Jul-24 20:33N 37°54' W 122°24'7 7.3
2014-Jul-24 19:33N 37°48' W 122°20'2 2.1
2014-Jul-24 18:32N 37°48' W 122°17'0 0.0
2014-Jul-24 17:32N 37°48' W 122°17'0 0.0
2014-Jul-24 16:32N 37°48' W 122°17'0 0.0
2014-Jul-24 15:32N 37°48' W 122°17'0 0.0
2014-Jul-24 14:32N 37°48' W 122°17'0 0.0
2014-Jul-24 13:32N 37°48' W 122°17'0 0.0
2014-Jul-24 12:32N 37°48' W 122°17'0 0.0
2014-Jul-24 11:32N 37°48' W 122°17'0 0.0
2014-Jul-24 10:32N 37°48' W 122°17'0 0.0
2014-Jul-24 09:32N 37°48' W 122°17'0 0.0
2014-Jul-24 08:32N 37°48' W 122°17'0 0.0
2014-Jul-24 07:32N 37°48' W 122°17'0 0.0
2014-Jul-24 06:32N 37°48' W 122°17'0 0.0
2014-Jul-24 05:31N 37°48' W 122°17'0 0.0
2014-Jul-24 04:31N 37°48' W 122°17'0 0.0
2014-Jul-24 03:31N 37°48' W 122°17'0 0.0
2014-Jul-24 02:28N 37°48' W 122°17'0 0.0
2014-Jul-24 01:22N 37°48' W 122°17'0 0.0
2014-Jul-24 00:31N 37°48' W 122°17'0 0.0
2014-Jul-23 23:31N 37°48' W 122°17'0 0.0
2014-Jul-23 22:31N 37°48' W 122°17'0 0.0
2014-Jul-23 21:31N 37°48' W 122°17'0 0.0
2014-Jul-23 20:33N 37°48' W 122°17'3 3.2
2014-Jul-23 19:33N 37°46' W 122°21'0 0.3
2014-Jul-23 18:33N 37°46' W 122°21'0 0.0
2014-Jul-23 17:33N 37°46' W 122°21'2 1.7
2014-Jul-23 16:33N 37°44' W 122°21'0 0.0
2014-Jul-23 15:33N 37°44' W 122°21'0 0.0
2014-Jul-23 14:27N 37°44' W 122°21'0 0.1
2014-Jul-23 13:33N 37°44' W 122°21'1 1.1
2014-Jul-23 12:33N 37°45' W 122°21'4 4.1
2014-Jul-23 11:33N 37°49' W 122°19'0 0.0
2014-Jul-23 10:32N 37°49' W 122°19'0 0.0
2014-Jul-23 09:32N 37°49' W 122°19'0 0.0
2014-Jul-23 08:32N 37°49' W 122°19'0 0.0
2014-Jul-23 07:32N 37°49' W 122°19'0 0.0
2014-Jul-23 06:32N 37°49' W 122°19'0 0.0
2014-Jul-23 05:32N 37°49' W 122°19'0 0.0
2014-Jul-23 04:32N 37°49' W 122°19'0 0.0
2014-Jul-23 03:32N 37°49' W 122°19'3 3.4
2014-Jul-23 02:33N 37°46' W 122°20'1 0.7
2014-Jul-23 01:33N 37°45' W 122°20'0 0.1
2014-Jul-23 00:33N 37°45' W 122°20'0 0.1
2014-Jul-22 23:33N 37°46' W 122°20'0 0.1
2014-Jul-22 22:33N 37°46' W 122°20'0 0.1
2014-Jul-22 21:33N 37°46' W 122°20'0 0.0
2014-Jul-22 20:33N 37°46' W 122°20'2 2.3
2014-Jul-22 19:33N 37°48' W 122°20'3 2.7
2014-Jul-22 18:33N 37°48' W 122°17'0 0.0
2014-Jul-22 17:33N 37°48' W 122°17'0 0.0
2014-Jul-22 16:33N 37°48' W 122°17'3 2.7
2014-Jul-22 15:33N 37°49' W 122°20'1 0.8
2014-Jul-22 14:32N 37°49' W 122°19'0 0.0
2014-Jul-22 13:32N 37°49' W 122°19'0 0.0
2014-Jul-22 12:32N 37°49' W 122°19'0 0.0
2014-Jul-22 11:32N 37°49' W 122°19'0 0.0
2014-Jul-22 10:32N 37°49' W 122°19'0 0.0
2014-Jul-22 09:32N 37°49' W 122°19'0 0.0
2014-Jul-22 08:32N 37°49' W 122°19'0 0.0
2014-Jul-22 07:33N 37°49' W 122°19'3 3.1
2014-Jul-22 06:34N 37°46' W 122°21'0 0.1
2014-Jul-22 05:33N 37°46' W 122°22'0 0.2
2014-Jul-22 04:33N 37°46' W 122°21'0 0.1
2014-Jul-22 03:33N 37°46' W 122°21'1 0.8
2014-Jul-22 02:33N 37°47' W 122°21'6 5.8
2014-Jul-22 01:33N 37°52' W 122°24'3 3.2
2014-Jul-22 00:33N 37°55' W 122°22'0 0.0
2014-Jul-21 23:31N 37°55' W 122°22'0 0.0
2014-Jul-21 22:31N 37°55' W 122°22'0 0.0
2014-Jul-21 21:31N 37°55' W 122°22'0 0.0
2014-Jul-21 20:31N 37°55' W 122°22'0 0.0
2014-Jul-21 20:16N 37°55' W 122°22'0 0.0
2014-Jul-21 19:28N 37°55' W 122°22'0 0.0
2014-Jul-21 18:31N 37°55' W 122°22'0 0.0
2014-Jul-21 17:31N 37°55' W 122°22'  

Dump ship's entire track history